createdAt,value
2018-04-09T00:00:12.393Z,12.9
2018-04-09T00:01:13.119Z,12.8
2018-04-09T00:02:13.880Z,12.9
2018-04-09T00:03:14.566Z,12.9
2018-04-09T00:04:15.323Z,12.9
2018-04-09T00:05:16.102Z,12.8
2018-04-09T00:06:17.183Z,12.8
2018-04-09T00:07:17.862Z,12.8
2018-04-09T00:08:18.578Z,12.8
2018-04-09T00:09:19.308Z,12.8
2018-04-09T00:10:20.056Z,12.8
2018-04-09T00:11:20.868Z,12.8
2018-04-09T00:12:21.669Z,12.8
2018-04-09T00:13:22.413Z,12.8
2018-04-09T00:14:23.160Z,12.8
2018-04-09T00:15:23.889Z,12.8
2018-04-09T00:16:24.637Z,12.8
2018-04-09T00:17:25.418Z,12.8
2018-04-09T00:18:26.237Z,12.8
2018-04-09T00:19:26.950Z,12.8
2018-04-09T00:20:27.742Z,12.8
2018-04-09T00:21:28.482Z,12.8
2018-04-09T00:22:29.213Z,12.9
2018-04-09T00:23:29.953Z,12.8
2018-04-09T00:24:30.701Z,12.8
2018-04-09T00:25:31.409Z,12.7
2018-04-09T00:26:32.174Z,12.7
2018-04-09T00:27:32.905Z,12.6
2018-04-09T00:28:33.709Z,12.6
2018-04-09T00:29:34.573Z,12.7
2018-04-09T00:30:35.318Z,12.7
2018-04-09T00:31:36.088Z,12.7
2018-04-09T00:32:36.844Z,12.6
2018-04-09T00:33:37.591Z,12.7
2018-04-09T00:34:38.318Z,12.6
2018-04-09T00:35:39.058Z,12.5
2018-04-09T00:36:39.838Z,12.5
2018-04-09T00:37:40.576Z,12.6
2018-04-09T00:38:41.383Z,12.5
2018-04-09T00:39:42.131Z,12.5
2018-04-09T00:40:42.850Z,12.5
2018-04-09T00:41:43.659Z,12.4
2018-04-09T00:42:44.383Z,12.5
2018-04-09T00:43:45.117Z,12.6
2018-04-09T00:44:45.919Z,12.4
2018-04-09T00:45:46.645Z,12.6
2018-04-09T00:46:47.475Z,12.5
2018-04-09T00:47:48.258Z,12.4
2018-04-09T00:48:49.071Z,12.4
2018-04-09T00:49:49.809Z,12.4
2018-04-09T00:50:50.607Z,12.3
2018-04-09T00:51:51.328Z,12.3
2018-04-09T00:52:52.058Z,12.2
2018-04-09T00:53:52.790Z,12.2
2018-04-09T00:54:53.530Z,12.1
2018-04-09T00:55:54.259Z,12.3
2018-04-09T00:56:54.991Z,12.3
2018-04-09T00:57:56.066Z,12.2
2018-04-09T00:58:56.802Z,12.2
2018-04-09T00:59:57.529Z,12.1
2018-04-09T01:00:58.259Z,12.1
2018-04-09T01:01:58.983Z,12.2
2018-04-09T01:03:00.072Z,12.1
2018-04-09T01:04:00.881Z,12.1
2018-04-09T01:05:01.702Z,12.1
2018-04-09T01:06:02.449Z,12.1
2018-04-09T01:07:03.176Z,12.1
2018-04-09T01:08:03.926Z,12.1
2018-04-09T01:09:04.651Z,12.0
2018-04-09T01:10:05.386Z,12.0
2018-04-09T01:11:06.216Z,12.0
2018-04-09T01:12:06.989Z,11.9
2018-04-09T01:13:07.744Z,11.9
2018-04-09T01:14:08.533Z,11.9
2018-04-09T01:15:09.268Z,11.8
2018-04-09T01:16:10.011Z,11.8
2018-04-09T01:17:10.741Z,11.8
2018-04-09T01:18:11.520Z,11.8
2018-04-09T01:19:12.311Z,11.8
2018-04-09T01:20:13.067Z,11.8
2018-04-09T01:21:13.868Z,11.8
2018-04-09T01:22:14.622Z,11.7
2018-04-09T01:23:15.367Z,11.8
2018-04-09T01:24:16.098Z,11.7
2018-04-09T01:25:16.830Z,11.7
2018-04-09T01:26:17.565Z,11.8
2018-04-09T01:27:18.306Z,11.7
2018-04-09T01:28:19.047Z,11.6
2018-04-09T01:29:19.881Z,11.6
2018-04-09T01:30:20.602Z,11.5
2018-04-09T01:31:21.343Z,11.5
2018-04-09T01:32:22.089Z,11.5
2018-04-09T01:33:22.877Z,11.5
2018-04-09T01:34:23.602Z,11.5
2018-04-09T01:35:24.328Z,11.6
2018-04-09T01:36:25.086Z,11.5
2018-04-09T01:37:25.829Z,11.6
2018-04-09T01:38:26.632Z,11.5
2018-04-09T01:39:27.450Z,11.4
2018-04-09T01:40:28.220Z,11.5
2018-04-09T01:41:28.962Z,11.5
2018-04-09T01:42:29.772Z,11.4
2018-04-09T01:43:30.535Z,11.5
2018-04-09T01:44:31.411Z,11.3
2018-04-09T01:45:32.143Z,11.4
2018-04-09T01:46:32.883Z,11.4
2018-04-09T01:47:33.616Z,11.4
2018-04-09T01:48:34.355Z,11.4
2018-04-09T01:49:35.098Z,11.4
2018-04-09T01:50:35.891Z,11.4
2018-04-09T01:51:36.677Z,11.4
2018-04-09T01:52:37.401Z,11.4
2018-04-09T01:53:38.145Z,11.4
2018-04-09T01:54:38.870Z,11.4
2018-04-09T01:55:39.615Z,11.3
2018-04-09T01:56:40.353Z,11.3
2018-04-09T01:57:41.087Z,11.3
2018-04-09T01:58:41.887Z,11.3
2018-04-09T01:59:42.595Z,11.2
2018-04-09T02:00:43.337Z,11.2
2018-04-09T02:01:44.063Z,11.1
2018-04-09T02:02:44.802Z,11.1
2018-04-09T02:03:45.523Z,11.2
2018-04-09T02:04:46.252Z,11.1
2018-04-09T02:05:46.996Z,11.0
2018-04-09T02:06:47.747Z,11.0
2018-04-09T02:07:48.473Z,11.0
2018-04-09T02:08:49.565Z,11.0
2018-04-09T02:09:50.304Z,11.0
2018-04-09T02:10:51.115Z,11.0
2018-04-09T02:11:51.860Z,11.0
2018-04-09T02:12:52.589Z,11.1
2018-04-09T02:13:53.680Z,10.9
2018-04-09T02:14:54.425Z,11.1
2018-04-09T02:15:55.227Z,11.0
2018-04-09T02:16:55.964Z,11.0
2018-04-09T02:17:56.703Z,11.0
2018-04-09T02:18:57.440Z,11.1
2018-04-09T02:19:58.224Z,11.0
2018-04-09T02:20:59.000Z,11.0
2018-04-09T02:21:59.808Z,11.0
2018-04-09T02:23:00.583Z,11.0
2018-04-09T02:24:01.378Z,10.9
2018-04-09T02:25:02.105Z,11.0
2018-04-09T02:26:02.846Z,10.9
2018-04-09T02:27:03.650Z,10.9
2018-04-09T02:28:04.388Z,10.8
2018-04-09T02:29:05.125Z,10.8
2018-04-09T02:30:05.937Z,10.8
2018-04-09T02:31:06.674Z,10.8
2018-04-09T02:32:07.418Z,10.8
2018-04-09T02:33:08.130Z,10.7
2018-04-09T02:34:08.876Z,10.8
2018-04-09T02:35:09.631Z,10.7
2018-04-09T02:36:10.367Z,10.7
2018-04-09T02:37:11.149Z,10.6
2018-04-09T02:38:11.882Z,10.6
2018-04-09T02:39:12.688Z,10.6
2018-04-09T02:40:13.414Z,10.5
2018-04-09T02:41:14.169Z,10.5
2018-04-09T02:42:14.905Z,10.5
2018-04-09T02:43:15.990Z,10.5
2018-04-09T02:44:16.804Z,10.4
2018-04-09T02:45:17.618Z,10.5
2018-04-09T02:46:18.394Z,10.4
2018-04-09T02:47:19.193Z,10.4
2018-04-09T02:48:20.035Z,10.4
2018-04-09T02:49:20.761Z,10.4
2018-04-09T02:50:21.481Z,10.4
2018-04-09T02:51:22.230Z,10.4
2018-04-09T02:52:22.962Z,10.4
2018-04-09T02:53:23.698Z,10.4
2018-04-09T02:54:24.515Z,10.3
2018-04-09T02:55:25.609Z,10.3
2018-04-09T02:56:26.412Z,10.3
2018-04-09T02:57:27.161Z,10.3
2018-04-09T02:58:27.901Z,10.3
2018-04-09T02:59:28.711Z,10.3
2018-04-09T03:00:29.434Z,10.3
2018-04-09T03:01:30.187Z,10.4
2018-04-09T03:02:30.975Z,10.3
2018-04-09T03:03:31.700Z,10.3
2018-04-09T03:04:32.434Z,10.3
2018-04-09T03:05:33.161Z,10.3
2018-04-09T03:06:33.900Z,10.3
2018-04-09T03:07:34.634Z,10.3
2018-04-09T03:08:35.376Z,10.3
2018-04-09T03:09:36.125Z,10.4
2018-04-09T03:10:36.849Z,10.3
2018-04-09T03:11:37.579Z,10.2
2018-04-09T03:12:38.372Z,10.3
2018-04-09T03:13:39.122Z,10.2
2018-04-09T03:14:39.868Z,10.2
2018-04-09T03:15:40.652Z,10.0
2018-04-09T03:16:41.331Z,10.1
2018-04-09T03:17:42.062Z,10.1
2018-04-09T03:18:42.832Z,10.0
2018-04-09T03:19:43.548Z,10.0
2018-04-09T03:20:44.297Z,10.0
2018-04-09T03:21:45.072Z,10.1
2018-04-09T03:22:45.800Z,10.0
2018-04-09T03:23:46.695Z,10.0
2018-04-09T03:24:47.490Z,10.0
2018-04-09T03:25:48.237Z,10.0
2018-04-09T03:26:48.977Z,9.9
2018-04-09T03:27:49.716Z,10.0
2018-04-09T03:28:50.522Z,9.9
2018-04-09T03:29:51.251Z,10.0
2018-04-09T03:30:52.438Z,9.9
2018-04-09T03:31:53.176Z,10.0
2018-04-09T03:32:53.971Z,10.0
2018-04-09T03:33:54.722Z,9.9
2018-04-09T03:34:55.448Z,9.9
2018-04-09T03:35:56.487Z,9.9
2018-04-09T03:36:57.231Z,9.9
2018-04-09T03:37:58.025Z,10.0
2018-04-09T03:38:58.838Z,10.0
2018-04-09T03:39:59.582Z,10.0
2018-04-09T03:41:00.373Z,10.0
2018-04-09T03:42:01.086Z,9.9
2018-04-09T03:43:01.829Z,10.0
2018-04-09T03:44:02.543Z,9.9
2018-04-09T03:45:03.295Z,9.8
2018-04-09T03:46:04.093Z,9.9
2018-04-09T03:47:04.813Z,9.8
2018-04-09T03:48:05.539Z,9.9
2018-04-09T03:49:06.312Z,9.9
2018-04-09T03:50:07.044Z,9.9
2018-04-09T03:51:07.758Z,9.9
2018-04-09T03:52:08.490Z,9.8
2018-04-09T03:53:09.233Z,9.9
2018-04-09T03:54:09.968Z,9.8
2018-04-09T03:55:10.710Z,9.8
2018-04-09T03:56:11.447Z,9.8
2018-04-09T03:57:12.190Z,9.8
2018-04-09T03:58:12.993Z,9.8
2018-04-09T03:59:13.691Z,9.8
2018-04-09T04:00:14.518Z,9.8
2018-04-09T04:01:15.251Z,9.7
2018-04-09T04:02:15.994Z,9.7
2018-04-09T04:03:16.719Z,9.6
2018-04-09T04:04:17.455Z,9.7
2018-04-09T04:05:18.593Z,9.7
2018-04-09T04:06:19.412Z,9.7
2018-04-09T04:07:20.231Z,9.7
2018-04-09T04:08:21.013Z,9.7
2018-04-09T04:09:21.739Z,9.6
2018-04-09T04:10:22.770Z,9.7
2018-04-09T04:11:23.499Z,9.7
2018-04-09T04:12:24.247Z,9.7
2018-04-09T04:13:24.991Z,9.7
2018-04-09T04:14:25.824Z,9.7
2018-04-09T04:15:26.579Z,9.6
2018-04-09T04:16:27.364Z,9.6
2018-04-09T04:17:28.112Z,9.7
2018-04-09T04:18:28.837Z,9.7
2018-04-09T04:19:29.654Z,9.7
2018-04-09T04:20:30.433Z,9.6
2018-04-09T04:21:31.243Z,9.6
2018-04-09T04:22:31.969Z,9.5
2018-04-09T04:23:32.738Z,9.6
2018-04-09T04:24:33.510Z,9.6
2018-04-09T04:25:34.257Z,9.6
2018-04-09T04:26:34.986Z,9.6
2018-04-09T04:27:35.724Z,9.6
2018-04-09T04:28:36.579Z,9.5
2018-04-09T04:29:37.328Z,9.4
2018-04-09T04:30:38.070Z,9.4
2018-04-09T04:31:38.821Z,9.4
2018-04-09T04:32:39.614Z,9.4
2018-04-09T04:33:40.642Z,9.4
2018-04-09T04:34:41.367Z,9.4
2018-04-09T04:35:42.099Z,9.4
2018-04-09T04:36:42.854Z,9.4
2018-04-09T04:37:43.671Z,9.4
2018-04-09T04:38:44.401Z,9.3
2018-04-09T04:39:45.203Z,9.3
2018-04-09T04:40:45.950Z,9.4
2018-04-09T04:41:46.748Z,9.4
2018-04-09T04:42:47.565Z,9.3
2018-04-09T04:43:48.296Z,9.3
2018-04-09T04:44:49.071Z,9.2
2018-04-09T04:45:49.809Z,9.2
2018-04-09T04:46:50.624Z,9.1
2018-04-09T04:47:51.403Z,9.2
2018-04-09T04:48:52.146Z,9.1
2018-04-09T04:49:52.918Z,9.2
2018-04-09T04:50:53.655Z,9.1
2018-04-09T04:51:54.397Z,9.1
2018-04-09T04:52:55.191Z,9.1
2018-04-09T04:53:55.922Z,9.1
2018-04-09T04:54:56.703Z,9.1
2018-04-09T04:55:57.498Z,9.2
2018-04-09T04:56:58.289Z,9.1
2018-04-09T04:57:59.050Z,9.0
2018-04-09T04:58:59.786Z,9.1
2018-04-09T05:00:00.513Z,9.1
2018-04-09T05:01:01.239Z,9.2
2018-04-09T05:02:01.982Z,9.2
2018-04-09T05:03:02.806Z,9.2
2018-04-09T05:04:03.528Z,9.2
2018-04-09T05:05:04.257Z,9.2
2018-04-09T05:06:05.006Z,9.2
2018-04-09T05:07:05.741Z,9.3
2018-04-09T05:08:06.480Z,9.3
2018-04-09T05:09:07.193Z,9.2
2018-04-09T05:10:07.925Z,9.3
2018-04-09T05:11:08.657Z,9.3
2018-04-09T05:12:09.465Z,9.4
2018-04-09T05:13:10.274Z,9.2
2018-04-09T05:14:11.064Z,9.3
2018-04-09T05:15:11.833Z,9.4
2018-04-09T05:16:12.564Z,9.3
2018-04-09T05:17:13.399Z,9.4
2018-04-09T05:18:14.178Z,9.3
2018-04-09T05:19:14.913Z,9.3
2018-04-09T05:20:15.654Z,9.3
2018-04-09T05:21:16.428Z,9.3
2018-04-09T05:22:17.177Z,9.4
2018-04-09T05:23:17.959Z,9.5
2018-04-09T05:24:18.702Z,9.6
2018-04-09T05:25:19.490Z,9.6
2018-04-09T05:26:20.267Z,9.6
2018-04-09T05:27:21.007Z,9.6
2018-04-09T05:28:21.763Z,9.6
2018-04-09T05:29:22.491Z,9.7
2018-04-09T05:30:23.222Z,9.6
2018-04-09T05:31:23.957Z,9.7
2018-04-09T05:32:24.737Z,9.7
2018-04-09T05:33:25.549Z,9.7
2018-04-09T05:34:26.338Z,9.8
2018-04-09T05:35:27.077Z,9.8
2018-04-09T05:36:27.814Z,9.8
2018-04-09T05:37:28.550Z,9.8
2018-04-09T05:38:29.294Z,9.9
2018-04-09T05:39:30.034Z,9.9
2018-04-09T05:40:30.884Z,10.0
2018-04-09T05:41:31.648Z,10.0
2018-04-09T05:42:32.418Z,10.0
2018-04-09T05:43:33.167Z,10.0
2018-04-09T05:44:33.970Z,10.1
2018-04-09T05:45:34.798Z,10.1
2018-04-09T05:46:35.564Z,10.2
2018-04-09T05:47:36.396Z,10.3
2018-04-09T05:48:37.170Z,10.3
2018-04-09T05:49:37.922Z,10.3
2018-04-09T05:50:38.681Z,10.4
2018-04-09T05:51:39.420Z,10.6
2018-04-09T05:52:40.280Z,10.6
2018-04-09T05:53:41.051Z,10.7
2018-04-09T05:54:41.860Z,10.9
2018-04-09T05:55:42.679Z,10.9
2018-04-09T05:56:43.462Z,10.9
2018-04-09T05:57:44.206Z,10.9
2018-04-09T05:58:44.936Z,11.0
2018-04-09T05:59:45.677Z,11.2
2018-04-09T06:00:46.428Z,11.3
2018-04-09T06:01:47.238Z,11.4
2018-04-09T06:02:48.328Z,11.4
2018-04-09T06:03:49.068Z,11.6
2018-04-09T06:04:49.813Z,11.6
2018-04-09T06:05:50.550Z,11.7
2018-04-09T06:06:51.309Z,11.8
2018-04-09T06:07:52.047Z,11.8
2018-04-09T06:08:52.782Z,11.9
2018-04-09T06:09:53.513Z,12.0
2018-04-09T06:10:54.251Z,12.1
2018-04-09T06:11:54.983Z,12.1
2018-04-09T06:12:55.738Z,12.3
2018-04-09T06:13:56.529Z,12.4
2018-04-09T06:14:57.264Z,12.4
2018-04-09T06:15:57.994Z,12.6
2018-04-09T06:16:58.742Z,12.6
2018-04-09T06:17:59.488Z,12.6
2018-04-09T06:19:00.230Z,12.8
2018-04-09T06:20:01.049Z,12.8
2018-04-09T06:21:01.892Z,12.8
2018-04-09T06:22:02.716Z,12.9
2018-04-09T06:23:03.446Z,13.0
2018-04-09T06:24:04.187Z,13.0
2018-04-09T06:25:04.908Z,13.0
2018-04-09T06:26:05.729Z,13.1
2018-04-09T06:27:06.468Z,13.1
2018-04-09T06:28:07.228Z,13.2
2018-04-09T06:29:07.977Z,13.3
2018-04-09T06:30:08.718Z,13.4
2018-04-09T06:31:09.812Z,13.4
2018-04-09T06:32:10.538Z,13.5
2018-04-09T06:33:11.270Z,13.6
2018-04-09T06:34:12.026Z,13.7
2018-04-09T06:35:12.810Z,13.8
2018-04-09T06:36:13.541Z,13.9
2018-04-09T06:37:14.288Z,14.0
2018-04-09T06:38:15.019Z,14.1
2018-04-09T06:39:15.782Z,14.2
2018-04-09T06:40:16.555Z,14.2
2018-04-09T06:41:17.247Z,14.3
2018-04-09T06:42:18.037Z,14.4
2018-04-09T06:43:18.788Z,14.4
2018-04-09T06:44:19.603Z,14.4
2018-04-09T06:45:20.334Z,14.5
2018-04-09T06:46:21.080Z,14.6
2018-04-09T06:47:21.939Z,14.7
2018-04-09T06:48:22.677Z,14.8
2018-04-09T06:49:23.487Z,14.9
2018-04-09T06:50:24.277Z,15.0
2018-04-09T06:51:25.037Z,15.1
2018-04-09T06:52:25.815Z,15.2
2018-04-09T06:53:26.558Z,15.3
2018-04-09T06:54:27.374Z,15.4
2018-04-09T06:55:28.129Z,15.5
2018-04-09T06:56:28.888Z,15.6
2018-04-09T06:57:29.682Z,15.8
2018-04-09T06:58:30.357Z,15.9
2018-04-09T06:59:31.101Z,16.0
2018-04-09T07:00:31.888Z,16.1
2018-04-09T07:01:32.623Z,16.1
2018-04-09T07:02:33.417Z,16.2
2018-04-09T07:03:34.164Z,16.3
2018-04-09T07:04:34.930Z,16.4
2018-04-09T07:05:35.707Z,16.4
2018-04-09T07:06:36.518Z,16.6
2018-04-09T07:07:37.269Z,16.7
2018-04-09T07:08:38.007Z,16.7
2018-04-09T07:09:38.802Z,16.9
2018-04-09T07:10:39.541Z,16.8
2018-04-09T07:11:40.288Z,16.8
2018-04-09T07:12:41.025Z,16.8
2018-04-09T07:13:41.763Z,16.8
2018-04-09T07:14:42.550Z,16.9
2018-04-09T07:15:43.289Z,17.0
2018-04-09T07:16:44.029Z,17.1
2018-04-09T07:17:44.776Z,17.1
2018-04-09T07:18:45.515Z,17.0
2018-04-09T07:19:46.301Z,17.2
2018-04-09T07:20:47.048Z,17.3
2018-04-09T07:21:47.872Z,17.2
2018-04-09T07:22:48.630Z,17.3
2018-04-09T07:23:49.381Z,17.5
2018-04-09T07:24:50.121Z,17.5
2018-04-09T07:25:50.862Z,17.6
2018-04-09T07:26:51.603Z,17.7
2018-04-09T07:27:52.345Z,17.7
2018-04-09T07:28:53.370Z,17.9
2018-04-09T07:29:54.194Z,18.1
2018-04-09T07:30:55.014Z,18.1
2018-04-09T07:31:55.769Z,18.5
2018-04-09T07:32:56.500Z,18.6
2018-04-09T07:33:57.288Z,18.8
2018-04-09T07:34:58.060Z,19.1
2018-04-09T07:35:58.800Z,19.6
2018-04-09T07:36:59.589Z,20.0
2018-04-09T07:38:00.341Z,20.3
2018-04-09T07:39:01.107Z,20.4
2018-04-09T07:40:01.899Z,20.9
2018-04-09T07:41:02.683Z,21.0
2018-04-09T07:42:03.423Z,21.2
2018-04-09T07:43:04.166Z,21.5
2018-04-09T07:44:04.898Z,21.7
2018-04-09T07:45:05.638Z,21.6
2018-04-09T07:46:06.390Z,21.7
2018-04-09T07:47:07.141Z,21.7
2018-04-09T07:48:07.908Z,21.9
2018-04-09T07:49:08.734Z,21.8
2018-04-09T07:50:09.546Z,21.7
2018-04-09T07:51:10.322Z,21.7
2018-04-09T07:52:11.061Z,21.6
2018-04-09T07:53:11.793Z,21.6
2018-04-09T07:54:12.544Z,21.6
2018-04-09T07:55:13.302Z,21.6
2018-04-09T07:56:14.192Z,21.6
2018-04-09T07:57:14.955Z,21.7
2018-04-09T07:58:15.714Z,21.5
2018-04-09T07:59:16.524Z,21.6
2018-04-09T08:00:17.275Z,21.6
2018-04-09T08:01:18.373Z,22.0
2018-04-09T08:02:19.188Z,21.8
2018-04-09T08:03:19.940Z,22.0
2018-04-09T08:04:20.668Z,22.0
2018-04-09T08:05:21.430Z,22.0
2018-04-09T08:06:22.213Z,22.0
2018-04-09T08:07:22.917Z,22.0
2018-04-09T08:08:23.719Z,22.1
2018-04-09T08:09:24.508Z,22.2
2018-04-09T08:10:25.273Z,22.3
2018-04-09T08:11:26.158Z,22.2
2018-04-09T08:12:26.902Z,22.3
2018-04-09T08:13:27.653Z,22.2
2018-04-09T08:14:28.397Z,22.3
2018-04-09T08:15:29.154Z,22.3
2018-04-09T08:16:29.912Z,22.4
2018-04-09T08:17:30.653Z,22.5
2018-04-09T08:18:31.464Z,22.5
2018-04-09T08:19:32.211Z,22.5
2018-04-09T08:20:33.007Z,22.6
2018-04-09T08:21:33.761Z,22.4
2018-04-09T08:22:34.530Z,22.4
2018-04-09T08:23:35.633Z,22.4
2018-04-09T08:24:36.403Z,22.5
2018-04-09T08:25:37.164Z,22.7
2018-04-09T08:26:37.968Z,22.6
2018-04-09T08:27:38.773Z,22.9
2018-04-09T08:28:39.520Z,22.9
2018-04-09T08:29:40.254Z,22.9
2018-04-09T08:30:41.063Z,22.8
2018-04-09T08:31:41.809Z,22.6
2018-04-09T08:32:42.550Z,22.7
2018-04-09T08:33:43.303Z,22.7
2018-04-09T08:34:44.117Z,22.8
2018-04-09T08:35:44.876Z,22.7
2018-04-09T08:36:45.677Z,22.8
2018-04-09T08:37:46.421Z,22.8
2018-04-09T08:38:47.181Z,22.6
2018-04-09T08:39:48.009Z,22.3
2018-04-09T08:40:48.868Z,22.2
2018-04-09T08:41:49.767Z,22.2
2018-04-09T08:42:50.578Z,21.9
2018-04-09T08:43:51.407Z,21.9
2018-04-09T08:44:52.141Z,21.7
2018-04-09T08:45:52.900Z,21.8
2018-04-09T08:46:53.735Z,21.8
2018-04-09T08:47:54.552Z,21.7
2018-04-09T08:48:55.290Z,21.8
2018-04-09T08:49:56.044Z,21.5
2018-04-09T08:50:56.788Z,21.3
2018-04-09T08:51:57.543Z,21.2
2018-04-09T08:52:58.277Z,21.3
2018-04-09T08:53:59.039Z,21.4
2018-04-09T08:54:59.785Z,21.5
2018-04-09T08:56:00.517Z,21.9
2018-04-09T08:57:01.277Z,22.0
2018-04-09T08:58:02.081Z,22.2
2018-04-09T08:59:02.813Z,22.1
2018-04-09T09:00:03.565Z,22.2
2018-04-09T09:01:04.333Z,22.3
2018-04-09T09:02:05.084Z,22.3
2018-04-09T09:03:05.852Z,22.3
2018-04-09T09:04:06.601Z,22.4
2018-04-09T09:05:07.338Z,22.4
2018-04-09T09:06:08.080Z,22.5
2018-04-09T09:07:08.840Z,22.4
2018-04-09T09:08:09.600Z,22.3
2018-04-09T09:09:10.355Z,22.4
2018-04-09T09:10:11.176Z,22.5
2018-04-09T09:11:11.930Z,22.5
2018-04-09T09:12:12.720Z,22.7
2018-04-09T09:13:13.446Z,22.9
2018-04-09T09:14:14.214Z,23.1
2018-04-09T09:15:15.059Z,23.3
2018-04-09T09:16:15.808Z,23.6
2018-04-09T09:17:16.561Z,23.6
2018-04-09T09:18:17.298Z,23.8
2018-04-09T09:19:18.089Z,23.8
2018-04-09T09:20:18.905Z,23.9
2018-04-09T09:21:19.661Z,24.0
2018-04-09T09:22:20.468Z,23.9
2018-04-09T09:23:21.235Z,23.7
2018-04-09T09:24:21.977Z,23.5
2018-04-09T09:25:22.734Z,23.5
2018-04-09T09:26:23.496Z,23.5
2018-04-09T09:27:24.243Z,23.6
2018-04-09T09:28:24.976Z,23.7
2018-04-09T09:29:25.773Z,23.8
2018-04-09T09:30:26.580Z,23.8
2018-04-09T09:31:27.387Z,23.8
2018-04-09T09:32:28.154Z,23.9
2018-04-09T09:33:28.901Z,24.3
2018-04-09T09:34:29.650Z,24.5
2018-04-09T09:35:30.495Z,24.8
2018-04-09T09:36:31.244Z,24.9
2018-04-09T09:37:32.007Z,25.1
2018-04-09T09:38:32.748Z,25.0
2018-04-09T09:39:33.572Z,24.7
2018-04-09T09:40:34.309Z,24.5
2018-04-09T09:41:35.067Z,24.6
2018-04-09T09:42:35.866Z,24.9
2018-04-09T09:43:36.630Z,25.3
2018-04-09T09:44:37.363Z,25.4
2018-04-09T09:45:38.497Z,25.5
2018-04-09T09:46:39.194Z,25.3
2018-04-09T09:47:40.052Z,25.1
2018-04-09T09:48:40.890Z,25.0
2018-04-09T09:49:41.716Z,24.9
2018-04-09T09:50:42.547Z,24.9
2018-04-09T09:51:44.296Z,25.0
2018-04-09T09:52:45.349Z,25.0
2018-04-09T09:53:46.102Z,25.1
2018-04-09T09:54:46.838Z,25.3
2018-04-09T09:55:47.664Z,25.2
2018-04-09T09:56:48.512Z,25.2
2018-04-09T09:57:49.381Z,25.3
2018-04-09T09:58:50.434Z,25.3
2018-04-09T09:59:51.246Z,25.3
2018-04-09T10:00:52.062Z,25.0
2018-04-09T10:01:52.822Z,25.0
2018-04-09T10:02:53.568Z,24.8
2018-04-09T10:03:54.579Z,24.8
2018-04-09T10:04:55.541Z,24.9
2018-04-09T10:05:56.388Z,24.7
2018-04-09T10:06:57.187Z,24.6
2018-04-09T10:07:57.922Z,24.5
2018-04-09T10:08:58.727Z,24.7
2018-04-09T10:09:59.486Z,24.8
2018-04-09T10:11:00.217Z,24.9
2018-04-09T10:12:00.981Z,25.0
2018-04-09T10:13:01.724Z,25.2
2018-04-09T10:14:02.453Z,25.2
2018-04-09T10:15:03.208Z,25.4
2018-04-09T10:16:04.019Z,25.6
2018-04-09T10:17:04.836Z,25.7
2018-04-09T10:18:05.650Z,25.5
2018-04-09T10:19:06.488Z,25.4
2018-04-09T10:20:07.249Z,25.5
2018-04-09T10:21:08.001Z,25.5
2018-04-09T10:22:08.739Z,25.8
2018-04-09T10:23:09.581Z,25.8
2018-04-09T10:24:10.362Z,25.8
2018-04-09T10:25:11.188Z,25.6
2018-04-09T10:26:11.943Z,25.7
2018-04-09T10:27:12.688Z,25.4
2018-04-09T10:28:13.445Z,25.2
2018-04-09T10:29:14.201Z,25.0
2018-04-09T10:30:15.043Z,24.8
2018-04-09T10:31:15.799Z,24.6
2018-04-09T10:32:16.542Z,24.6
2018-04-09T10:33:17.305Z,24.7
2018-04-09T10:34:18.068Z,24.6
2018-04-09T10:35:18.801Z,24.7
2018-04-09T10:36:19.533Z,24.6
2018-04-09T10:37:20.332Z,24.7
2018-04-09T10:38:21.133Z,24.8
2018-04-09T10:39:21.982Z,24.5
2018-04-09T10:40:22.722Z,24.5
2018-04-09T10:41:23.483Z,24.5
2018-04-09T10:42:24.218Z,24.5
2018-04-09T10:43:24.969Z,24.3
2018-04-09T10:44:25.817Z,24.4
2018-04-09T10:45:26.590Z,24.5
2018-04-09T10:46:27.442Z,24.6
2018-04-09T10:47:28.213Z,24.7
2018-04-09T10:48:29.098Z,24.8
2018-04-09T10:49:29.847Z,24.6
2018-04-09T10:50:30.619Z,24.6
2018-04-09T10:51:31.475Z,24.5
2018-04-09T10:52:32.224Z,24.8
2018-04-09T10:53:32.957Z,24.8
2018-04-09T10:54:33.743Z,25.1
2018-04-09T10:55:34.581Z,25.3
2018-04-09T10:56:35.324Z,25.4
2018-04-09T10:57:36.081Z,25.4
2018-04-09T10:58:36.864Z,25.4
2018-04-09T10:59:38.365Z,25.5
2018-04-09T11:00:39.066Z,25.5
2018-04-09T11:01:39.850Z,25.6
2018-04-09T11:02:40.590Z,25.7
2018-04-09T11:03:41.348Z,25.8
2018-04-09T11:04:42.438Z,25.9
2018-04-09T11:05:43.188Z,25.9
2018-04-09T11:06:43.942Z,25.9
2018-04-09T11:07:44.679Z,25.9
2018-04-09T11:08:45.496Z,26.1
2018-04-09T11:09:46.328Z,26.3
2018-04-09T11:10:47.115Z,26.5
2018-04-09T11:11:47.923Z,26.8
2018-04-09T11:12:48.729Z,26.9
2018-04-09T11:13:49.552Z,26.4
2018-04-09T11:14:50.326Z,26.4
2018-04-09T11:15:51.161Z,26.4
2018-04-09T11:16:51.889Z,26.4
2018-04-09T11:17:52.659Z,26.1
2018-04-09T11:18:53.456Z,25.8
2018-04-09T11:19:54.252Z,25.7
2018-04-09T11:20:55.243Z,25.7
2018-04-09T11:21:56.112Z,25.8
2018-04-09T11:22:56.923Z,25.7
2018-04-09T11:23:57.730Z,25.7
2018-04-09T11:24:58.496Z,25.8
2018-04-09T11:25:59.298Z,25.7
2018-04-09T11:27:00.096Z,25.7
2018-04-09T11:28:00.852Z,25.7
2018-04-09T11:29:01.647Z,25.5
2018-04-09T11:30:02.424Z,25.5
2018-04-09T11:31:03.187Z,25.2
2018-04-09T11:32:04.004Z,24.8
2018-04-09T11:33:04.738Z,24.8
2018-04-09T11:34:05.499Z,24.7
2018-04-09T11:35:06.319Z,24.5
2018-04-09T11:36:07.107Z,24.4
2018-04-09T11:37:07.891Z,24.3
2018-04-09T11:38:08.685Z,24.4
2018-04-09T11:39:09.433Z,24.4
2018-04-09T11:40:10.198Z,24.4
2018-04-09T11:41:11.041Z,24.3
2018-04-09T11:42:11.856Z,24.4
2018-04-09T11:43:12.657Z,24.3
2018-04-09T11:44:13.361Z,24.5
2018-04-09T11:45:14.111Z,24.4
2018-04-09T11:46:14.873Z,24.5
2018-04-09T11:47:15.724Z,24.6
2018-04-09T11:48:16.503Z,24.7
2018-04-09T11:49:17.327Z,24.6
2018-04-09T11:50:18.016Z,24.8
2018-04-09T11:51:18.762Z,24.7
2018-04-09T11:52:19.586Z,24.8
2018-04-09T11:53:20.381Z,24.8
2018-04-09T11:54:21.426Z,24.6
2018-04-09T11:55:22.236Z,24.3
2018-04-09T11:56:23.026Z,24.3
2018-04-09T11:57:23.769Z,24.4
2018-04-09T11:58:24.527Z,24.4
2018-04-09T11:59:25.355Z,24.3
2018-04-09T12:00:26.113Z,24.4
2018-04-09T12:01:26.940Z,24.5
2018-04-09T12:02:27.685Z,24.5
2018-04-09T12:03:28.431Z,24.6
2018-04-09T12:04:29.197Z,24.5
2018-04-09T12:05:29.964Z,24.6
2018-04-09T12:06:30.769Z,24.6
2018-04-09T12:07:31.610Z,24.5
2018-04-09T12:08:32.425Z,24.4
2018-04-09T12:09:33.251Z,24.3
2018-04-09T12:10:34.012Z,24.4
2018-04-09T12:11:34.759Z,24.3
2018-04-09T12:12:35.520Z,24.4
2018-04-09T12:13:36.268Z,24.3
2018-04-09T12:14:37.003Z,24.4
2018-04-09T12:15:37.776Z,24.2
2018-04-09T12:16:38.508Z,24.3
2018-04-09T12:17:39.266Z,24.3
2018-04-09T12:18:40.118Z,24.1
2018-04-09T12:19:42.029Z,24.2
2018-04-09T12:20:42.659Z,24.0
2018-04-09T12:21:43.508Z,24.1
2018-04-09T12:22:44.910Z,24.0
2018-04-09T12:23:45.628Z,24.0
2018-04-09T12:24:46.465Z,23.9
2018-04-09T12:25:47.215Z,24.0
2018-04-09T12:26:48.046Z,23.9
2018-04-09T12:27:48.844Z,23.4
2018-04-09T12:28:49.669Z,23.4
2018-04-09T12:29:50.631Z,23.5
2018-04-09T12:30:51.688Z,23.7
2018-04-09T12:31:52.427Z,23.7
2018-04-09T12:32:53.188Z,23.8
2018-04-09T12:33:54.083Z,23.8
2018-04-09T12:34:54.828Z,23.9
2018-04-09T12:35:55.531Z,24.0
2018-04-09T12:36:56.284Z,24.1
2018-04-09T12:37:57.031Z,24.1
2018-04-09T12:38:57.837Z,24.3
2018-04-09T12:39:58.609Z,24.6
2018-04-09T12:40:59.438Z,24.7
2018-04-09T12:42:00.267Z,24.7
2018-04-09T12:43:01.068Z,24.8
2018-04-09T12:44:01.930Z,25.0
2018-04-09T12:45:02.739Z,25.2
2018-04-09T12:46:03.502Z,25.2
2018-04-09T12:47:04.247Z,25.4
2018-04-09T12:48:04.989Z,25.5
2018-04-09T12:49:05.740Z,25.8
2018-04-09T12:50:06.593Z,26.0
2018-04-09T12:51:07.347Z,26.0
2018-04-09T12:52:08.089Z,26.2
2018-04-09T12:53:08.842Z,26.2
2018-04-09T12:54:09.584Z,26.3
2018-04-09T12:55:10.403Z,26.4
2018-04-09T12:56:11.188Z,26.5
2018-04-09T12:57:11.939Z,26.6
2018-04-09T12:58:12.754Z,26.7
2018-04-09T12:59:13.503Z,26.8
2018-04-09T13:00:14.632Z,26.4
2018-04-09T13:01:15.390Z,26.3
2018-04-09T13:02:16.141Z,26.1
2018-04-09T13:03:16.936Z,26.2
2018-04-09T13:04:17.671Z,26.3
2018-04-09T13:05:18.518Z,26.3
2018-04-09T13:06:19.292Z,26.3
2018-04-09T13:07:20.030Z,26.4
2018-04-09T13:08:20.789Z,26.3
2018-04-09T13:09:21.478Z,26.0
2018-04-09T13:10:22.210Z,25.4
2018-04-09T13:11:22.956Z,25.3
2018-04-09T13:12:23.770Z,25.4
2018-04-09T13:13:25.396Z,25.2
2018-04-09T13:14:26.080Z,25.0
2018-04-09T13:15:27.167Z,24.9
2018-04-09T13:16:27.962Z,24.7
2018-04-09T13:17:28.678Z,24.5
2018-04-09T13:18:29.447Z,24.3
2018-04-09T13:19:30.277Z,24.3
2018-04-09T13:20:31.371Z,24.2
2018-04-09T13:21:32.138Z,24.1
2018-04-09T13:22:32.899Z,24.2
2018-04-09T13:23:33.724Z,24.2
2018-04-09T13:24:34.471Z,24.1
2018-04-09T13:25:35.564Z,24.2
2018-04-09T13:26:36.298Z,24.1
2018-04-09T13:27:37.056Z,24.0
2018-04-09T13:28:37.813Z,24.1
2018-04-09T13:29:38.557Z,24.2
2018-04-09T13:30:39.570Z,24.1
2018-04-09T13:31:40.338Z,23.8
2018-04-09T13:32:41.166Z,23.8